createdAt,value
2023-06-17T00:00:46.363Z,1.33
2023-06-17T00:03:12.959Z,1.13
2023-06-17T00:05:39.829Z,1.25
2023-06-17T00:08:07.282Z,1.23
2023-06-17T00:10:33.738Z,1.20
2023-06-17T00:13:01.542Z,1.00
2023-06-17T00:15:29.759Z,1.35
2023-06-17T00:17:57.721Z,1.13
2023-06-17T00:20:24.609Z,0.85
2023-06-17T00:22:53.736Z,1.17
2023-06-17T00:25:20.190Z,1.47
2023-06-17T00:27:46.632Z,1.13
2023-06-17T00:30:13.186Z,1.25
2023-06-17T00:32:41.101Z,1.33
2023-06-17T00:35:07.701Z,1.30
2023-06-17T00:37:34.449Z,1.00
2023-06-17T00:40:00.907Z,0.73
2023-06-17T00:42:27.435Z,1.02
2023-06-17T00:44:54.035Z,1.00
2023-06-17T00:47:20.580Z,1.02
2023-06-17T00:49:48.163Z,0.87
2023-06-17T00:52:27.381Z,1.10
2023-06-17T00:55:01.518Z,1.13
2023-06-17T00:57:28.939Z,1.05
2023-06-17T00:59:55.448Z,1.08
2023-06-17T01:02:26.794Z,0.87
2023-06-17T01:04:54.306Z,0.98
2023-06-17T01:07:36.702Z,1.00
2023-06-17T01:10:07.545Z,0.82
2023-06-17T01:12:34.321Z,0.93
2023-06-17T01:15:02.239Z,0.87
2023-06-17T01:17:29.831Z,1.23
2023-06-17T01:19:56.468Z,0.90
2023-06-17T01:22:23.198Z,1.13
2023-06-17T01:24:50.284Z,1.25
2023-06-17T01:27:20.280Z,0.83
2023-06-17T01:29:50.117Z,0.77
2023-06-17T01:32:17.376Z,0.70
2023-06-17T01:34:58.119Z,0.82
2023-06-17T01:37:26.966Z,0.50
2023-06-17T01:39:55.542Z,1.13
2023-06-17T01:42:26.675Z,0.80
2023-06-17T01:44:54.097Z,0.82
2023-06-17T01:47:20.578Z,1.00
2023-06-17T01:49:48.077Z,0.93
2023-06-17T01:52:14.506Z,0.97
2023-06-17T01:54:40.959Z,0.85
2023-06-17T01:57:07.743Z,0.88
2023-06-17T01:59:34.182Z,0.60
2023-06-17T02:02:00.618Z,0.88
2023-06-17T02:04:27.082Z,0.63
2023-06-17T02:06:54.247Z,0.68
2023-06-17T02:09:20.700Z,0.93
2023-06-17T02:11:47.198Z,1.05
2023-06-17T02:14:13.654Z,1.15
2023-06-17T02:16:45.423Z,0.70
2023-06-17T02:19:13.464Z,0.50
2023-06-17T02:21:40.192Z,0.75
2023-06-17T02:24:06.708Z,0.30
2023-06-17T02:26:33.764Z,1.20
2023-06-17T02:29:00.194Z,0.60
2023-06-17T02:31:30.085Z,0.57
2023-06-17T02:33:57.316Z,1.15
2023-06-17T02:36:23.958Z,0.88
2023-06-17T02:38:51.315Z,1.08
2023-06-17T02:41:17.832Z,0.93
2023-06-17T02:43:44.289Z,0.68
2023-06-17T02:46:10.790Z,0.80
2023-06-17T02:48:37.723Z,0.85
2023-06-17T02:51:05.279Z,1.15
2023-06-17T02:53:31.737Z,0.63
2023-06-17T02:55:58.608Z,0.82
2023-06-17T02:58:27.035Z,0.95
2023-06-17T03:00:56.676Z,0.88
2023-06-17T03:03:35.617Z,0.98
2023-06-17T03:06:04.333Z,0.90
2023-06-17T03:08:32.328Z,0.80
2023-06-17T03:11:00.894Z,0.95
2023-06-17T03:13:28.162Z,0.93
2023-06-17T03:15:55.716Z,0.93
2023-06-17T03:18:22.743Z,1.13
2023-06-17T03:20:50.462Z,1.05
2023-06-17T03:23:17.236Z,1.30
2023-06-17T03:25:44.044Z,1.10
2023-06-17T03:28:10.666Z,0.73
2023-06-17T03:30:39.160Z,0.60
2023-06-17T03:33:05.809Z,0.90
2023-06-17T03:35:33.138Z,1.13
2023-06-17T03:37:59.602Z,0.88
2023-06-17T03:40:26.141Z,1.08
2023-06-17T03:42:52.581Z,1.03
2023-06-17T03:45:19.004Z,1.23
2023-06-17T03:47:45.506Z,0.57
2023-06-17T03:50:11.940Z,0.65
2023-06-17T03:52:38.362Z,1.10
2023-06-17T03:55:06.065Z,1.50
2023-06-17T03:57:32.584Z,1.00
2023-06-17T03:59:59.002Z,1.08
2023-06-17T04:02:25.549Z,1.02
2023-06-17T04:04:53.694Z,0.77
2023-06-17T04:07:23.719Z,0.40
2023-06-17T04:10:01.967Z,1.30
2023-06-17T04:12:32.147Z,2.72
2023-06-17T04:14:58.590Z,2.38
2023-06-17T04:17:25.071Z,3.85
2023-06-17T04:19:51.529Z,1.97
2023-06-17T04:22:18.008Z,3.20
2023-06-17T04:24:44.449Z,2.50
2023-06-17T04:27:11.360Z,2.17
2023-06-17T04:29:38.569Z,2.33
2023-06-17T04:32:05.311Z,2.00
2023-06-17T04:34:31.970Z,1.45
2023-06-17T04:36:59.656Z,1.70
2023-06-17T04:39:27.413Z,1.85
2023-06-17T04:41:54.529Z,1.50
2023-06-17T04:44:21.665Z,1.37
2023-06-17T04:46:49.609Z,1.30
2023-06-17T04:49:16.715Z,1.48
2023-06-17T04:51:43.209Z,1.17
2023-06-17T04:54:09.707Z,1.83
2023-06-17T04:56:36.200Z,1.20
2023-06-17T04:59:02.907Z,1.00
2023-06-17T05:01:29.356Z,1.05
2023-06-17T05:03:55.863Z,1.10
2023-06-17T05:06:22.733Z,1.25
2023-06-17T05:08:49.166Z,1.30
2023-06-17T05:11:15.634Z,0.95
2023-06-17T05:13:42.111Z,1.17
2023-06-17T05:16:08.539Z,1.08
2023-06-17T05:18:35.023Z,1.23
2023-06-17T05:21:03.582Z,0.70
2023-06-17T05:23:30.489Z,0.82
2023-06-17T05:25:56.940Z,1.00
2023-06-17T05:28:23.467Z,1.13
2023-06-17T05:30:49.942Z,1.25
2023-06-17T05:33:16.413Z,1.17
2023-06-17T05:35:42.860Z,1.30
2023-06-17T05:38:09.289Z,1.00
2023-06-17T05:40:35.786Z,1.00
2023-06-17T05:43:02.314Z,1.02
2023-06-17T05:45:28.720Z,1.07
2023-06-17T05:47:55.200Z,1.55
2023-06-17T05:50:23.103Z,1.45
2023-06-17T05:52:49.747Z,1.38
2023-06-17T05:55:16.245Z,2.30
2023-06-17T05:57:42.687Z,1.13
2023-06-17T06:00:09.555Z,1.90
2023-06-17T06:02:36.055Z,1.80
2023-06-17T06:05:04.176Z,1.38
2023-06-17T06:07:30.723Z,1.13
2023-06-17T06:09:57.161Z,1.03
2023-06-17T06:12:23.657Z,1.33
2023-06-17T06:14:52.488Z,1.83
2023-06-17T06:17:18.952Z,1.80
2023-06-17T06:19:45.379Z,1.48
2023-06-17T06:22:11.796Z,1.53
2023-06-17T06:24:38.276Z,1.65
2023-06-17T06:27:04.996Z,0.98
2023-06-17T06:29:31.410Z,1.10
2023-06-17T06:31:57.834Z,1.42
2023-06-17T06:34:24.292Z,0.90
2023-06-17T06:36:50.785Z,1.13
2023-06-17T06:39:17.734Z,1.02
2023-06-17T06:41:44.176Z,1.08
2023-06-17T06:44:10.746Z,1.02
2023-06-17T06:46:37.163Z,1.00
2023-06-17T06:49:03.625Z,0.88
2023-06-17T06:51:30.418Z,0.90
2023-06-17T06:53:56.890Z,1.00
2023-06-17T06:56:23.410Z,0.95
2023-06-17T06:58:49.816Z,0.90
2023-06-17T07:01:16.350Z,0.95
2023-06-17T07:03:43.073Z,1.13
2023-06-17T07:06:09.622Z,0.98
2023-06-17T07:08:36.218Z,1.08
2023-06-17T07:11:02.938Z,1.00
2023-06-17T07:13:29.358Z,0.80
2023-06-17T07:15:55.982Z,1.05
2023-06-17T07:18:22.983Z,1.05
2023-06-17T07:20:49.470Z,0.98
2023-06-17T07:23:15.868Z,0.83
2023-06-17T07:25:42.413Z,0.77
2023-06-17T07:28:08.897Z,1.23
2023-06-17T07:30:35.482Z,1.48
2023-06-17T07:33:02.194Z,1.27
2023-06-17T07:35:30.108Z,1.00
2023-06-17T07:37:57.008Z,0.90
2023-06-17T07:40:23.850Z,1.02
2023-06-17T07:42:50.419Z,1.08
2023-06-17T07:45:16.896Z,0.98
2023-06-17T07:47:43.487Z,1.00
2023-06-17T07:50:10.346Z,1.25
2023-06-17T07:52:37.195Z,1.95
2023-06-17T07:55:06.994Z,2.03
2023-06-17T07:57:34.604Z,2.33
2023-06-17T08:00:01.239Z,2.20
2023-06-17T08:02:27.837Z,2.28
2023-06-17T08:04:54.537Z,2.70
2023-06-17T08:07:21.411Z,2.30
2023-06-17T08:09:48.529Z,1.92
2023-06-17T08:12:15.015Z,2.23
2023-06-17T08:14:41.527Z,2.33
2023-06-17T08:17:08.103Z,2.35
2023-06-17T08:19:34.613Z,2.00
2023-06-17T08:22:01.400Z,3.00
2023-06-17T08:24:28.123Z,2.90
2023-06-17T08:26:54.985Z,2.13
2023-06-17T08:29:21.876Z,2.70
2023-06-17T08:31:49.820Z,2.85
2023-06-17T08:34:16.669Z,3.03
2023-06-17T08:36:44.133Z,3.37
2023-06-17T08:39:11.001Z,2.83
2023-06-17T08:41:40.144Z,3.13
2023-06-17T08:44:07.539Z,2.72
2023-06-17T08:46:34.700Z,2.53
2023-06-17T08:49:01.570Z,3.30
2023-06-17T08:51:28.460Z,2.33
2023-06-17T08:53:55.872Z,2.60
2023-06-17T08:56:22.324Z,2.45
2023-06-17T08:58:50.955Z,2.50
2023-06-17T09:01:18.305Z,2.70
2023-06-17T09:03:45.012Z,3.25
2023-06-17T09:06:19.095Z,2.90
2023-06-17T09:08:46.134Z,3.30
2023-06-17T09:11:12.671Z,3.08
2023-06-17T09:13:39.155Z,3.00
2023-06-17T09:16:05.766Z,2.65
2023-06-17T09:18:35.439Z,2.30
2023-06-17T09:21:05.952Z,2.80
2023-06-17T09:23:32.397Z,3.13
2023-06-17T09:26:03.334Z,2.10
2023-06-17T09:28:30.024Z,2.88
2023-06-17T09:30:58.482Z,2.70
2023-06-17T09:33:25.496Z,3.20
2023-06-17T09:36:01.864Z,3.20
2023-06-17T09:38:29.119Z,2.90
2023-06-17T09:40:57.463Z,2.72
2023-06-17T09:43:29.182Z,2.50
2023-06-17T09:46:02.943Z,2.72
2023-06-17T09:48:33.229Z,2.83
2023-06-17T09:51:00.256Z,2.37
2023-06-17T09:53:30.934Z,2.22
2023-06-17T09:55:58.615Z,2.67
2023-06-17T09:58:30.390Z,2.40
2023-06-17T10:01:09.266Z,2.50
2023-06-17T10:03:36.384Z,1.97
2023-06-17T10:06:06.980Z,2.72
2023-06-17T10:08:35.948Z,2.40
2023-06-17T10:11:02.407Z,3.40
2023-06-17T10:13:38.554Z,1.90
2023-06-17T10:16:06.105Z,1.77
2023-06-17T10:18:34.321Z,2.30
2023-06-17T10:21:01.477Z,2.13
2023-06-17T10:23:28.531Z,2.70
2023-06-17T10:25:55.813Z,2.53
2023-06-17T10:28:22.601Z,2.23
2023-06-17T10:30:49.821Z,2.47
2023-06-17T10:33:16.239Z,2.60
2023-06-17T10:35:44.380Z,2.65
2023-06-17T10:38:27.124Z,2.67
2023-06-17T10:40:53.623Z,2.70
2023-06-17T10:43:21.025Z,2.35
2023-06-17T10:45:51.949Z,2.28
2023-06-17T10:48:23.331Z,2.80
2023-06-17T10:50:53.948Z,2.58
2023-06-17T10:53:25.513Z,3.03
2023-06-17T10:55:52.001Z,2.35
2023-06-17T10:58:18.514Z,2.70
2023-06-17T11:00:45.240Z,2.80
2023-06-17T11:03:12.009Z,2.70
2023-06-17T11:05:38.628Z,2.10
2023-06-17T11:08:05.470Z,2.08
2023-06-17T11:10:32.578Z,1.90
2023-06-17T11:12:59.006Z,2.47
2023-06-17T11:15:25.518Z,2.70
2023-06-17T11:18:02.224Z,2.50
2023-06-17T11:20:30.960Z,0.95
2023-06-17T11:22:57.422Z,1.35
2023-06-17T11:25:36.022Z,1.90
2023-06-17T11:28:10.461Z,2.03
2023-06-17T11:30:37.391Z,2.23
2023-06-17T11:33:03.963Z,2.20
2023-06-17T11:35:30.923Z,2.90
2023-06-17T11:37:57.414Z,2.03
2023-06-17T11:40:25.971Z,1.90
2023-06-17T11:42:53.769Z,1.97
2023-06-17T11:45:21.411Z,2.08
2023-06-17T11:47:47.976Z,2.17
2023-06-17T11:50:15.312Z,2.25
2023-06-17T11:52:41.921Z,2.92
2023-06-17T11:55:14.010Z,1.63
2023-06-17T11:57:43.404Z,2.78
2023-06-17T12:00:14.507Z,2.80
2023-06-17T12:02:41.155Z,3.13
2023-06-17T12:05:09.891Z,2.70
2023-06-17T12:07:40.583Z,2.97
2023-06-17T12:10:10.684Z,3.15
2023-06-17T12:12:38.349Z,2.15
2023-06-17T12:15:21.211Z,2.47
2023-06-17T12:17:51.917Z,2.53
2023-06-17T12:20:22.287Z,2.73
2023-06-17T12:22:49.448Z,2.72
2023-06-17T12:25:16.002Z,2.45
2023-06-17T12:27:43.566Z,3.00
2023-06-17T12:30:10.610Z,2.65
2023-06-17T12:32:37.435Z,2.67
2023-06-17T12:35:05.372Z,2.70
2023-06-17T12:37:34.731Z,3.00
2023-06-17T12:40:04.203Z,3.10
2023-06-17T12:42:31.100Z,2.90
2023-06-17T12:44:57.547Z,3.40
2023-06-17T12:47:24.849Z,2.80
2023-06-17T12:49:51.506Z,3.60
2023-06-17T12:52:17.960Z,2.90
2023-06-17T12:54:44.707Z,2.63
2023-06-17T12:57:12.905Z,2.70
2023-06-17T12:59:41.372Z,3.45
2023-06-17T13:02:07.939Z,3.20
2023-06-17T13:04:34.619Z,3.22
2023-06-17T13:07:01.231Z,2.25
2023-06-17T13:09:27.867Z,3.23
2023-06-17T13:11:54.701Z,3.30
2023-06-17T13:14:22.760Z,3.35
2023-06-17T13:16:49.697Z,3.67
2023-06-17T13:19:17.440Z,2.97
2023-06-17T13:21:44.200Z,2.90
2023-06-17T13:24:10.947Z,2.67
2023-06-17T13:26:37.583Z,2.60
2023-06-17T13:29:04.545Z,3.20
2023-06-17T13:31:31.228Z,2.97
2023-06-17T13:33:58.132Z,3.30
2023-06-17T13:36:25.139Z,3.47
2023-06-17T13:38:51.683Z,3.33
2023-06-17T13:41:18.106Z,2.97
2023-06-17T13:43:44.783Z,2.90
2023-06-17T13:46:11.339Z,3.73
2023-06-17T13:48:38.020Z,3.15
2023-06-17T13:51:04.978Z,2.97
2023-06-17T13:53:34.371Z,2.97
2023-06-17T13:56:00.979Z,3.10
2023-06-17T13:58:27.453Z,3.50
2023-06-17T14:00:54.590Z,3.33
2023-06-17T14:03:21.402Z,1.65
2023-06-17T14:05:48.109Z,3.22
2023-06-17T14:08:14.875Z,3.15
2023-06-17T14:10:41.547Z,3.33
2023-06-17T14:13:08.011Z,3.20
2023-06-17T14:15:34.525Z,2.47
2023-06-17T14:18:01.012Z,3.53
2023-06-17T14:20:27.473Z,3.08
2023-06-17T14:23:00.532Z,2.90
2023-06-17T14:25:27.131Z,3.00
2023-06-17T14:27:53.638Z,3.47
2023-06-17T14:30:20.552Z,3.33
2023-06-17T14:32:48.090Z,3.25
2023-06-17T14:35:16.863Z,2.90
2023-06-17T14:37:44.217Z,3.22
2023-06-17T14:40:11.223Z,4.00
2023-06-17T14:42:39.681Z,3.90
2023-06-17T14:45:07.523Z,2.15
2023-06-17T14:47:35.283Z,2.00
2023-06-17T14:50:02.121Z,2.38
2023-06-17T14:52:28.623Z,3.40
2023-06-17T14:54:55.180Z,3.70
2023-06-17T14:57:22.060Z,3.60
2023-06-17T14:59:48.557Z,2.70
2023-06-17T15:02:31.020Z,3.17
2023-06-17T15:04:57.474Z,3.47
2023-06-17T15:07:23.865Z,3.33
2023-06-17T15:09:50.342Z,3.47
2023-06-17T15:12:16.802Z,3.27
2023-06-17T15:14:43.322Z,3.60
2023-06-17T15:17:09.885Z,3.28
2023-06-17T15:19:37.601Z,3.65
2023-06-17T15:22:04.375Z,3.88
2023-06-17T15:24:30.948Z,3.27
2023-06-17T15:26:57.616Z,4.00
2023-06-17T15:29:24.550Z,4.25
2023-06-17T15:31:50.957Z,3.80
2023-06-17T15:34:17.393Z,3.92
2023-06-17T15:36:43.934Z,3.20
2023-06-17T15:39:21.105Z,3.60
2023-06-17T15:41:47.539Z,3.83
2023-06-17T15:44:17.404Z,2.60
2023-06-17T15:46:43.993Z,3.40
2023-06-17T15:49:10.965Z,3.00
2023-06-17T15:51:37.472Z,2.78
2023-06-17T15:54:04.614Z,3.67
2023-06-17T15:56:31.365Z,3.72
2023-06-17T15:59:00.496Z,3.53
2023-06-17T16:01:27.627Z,3.60
2023-06-17T16:03:54.140Z,3.25
2023-06-17T16:06:20.675Z,3.80
2023-06-17T16:08:47.110Z,4.38
2023-06-17T16:11:13.569Z,2.83
2023-06-17T16:13:40.075Z,3.20
2023-06-17T16:16:06.918Z,3.20
2023-06-17T16:18:33.362Z,3.42
2023-06-17T16:20:59.802Z,2.50
2023-06-17T16:23:26.849Z,4.13
2023-06-17T16:25:56.008Z,3.30
2023-06-17T16:28:22.785Z,2.95
2023-06-17T16:30:49.280Z,3.17
2023-06-17T16:33:15.854Z,2.95
2023-06-17T16:35:42.318Z,2.83
2023-06-17T16:38:08.971Z,3.17
2023-06-17T16:40:35.550Z,2.55
2023-06-17T16:43:02.120Z,3.28
2023-06-17T16:45:29.023Z,2.97
2023-06-17T16:47:56.576Z,3.13
2023-06-17T16:50:23.343Z,3.03
2023-06-17T16:52:50.292Z,2.95
2023-06-17T16:55:16.746Z,2.40
2023-06-17T16:57:43.187Z,2.45
2023-06-17T17:00:10.030Z,0.95
2023-06-17T17:02:36.665Z,2.17
2023-06-17T17:05:03.267Z,2.10
2023-06-17T17:07:29.676Z,2.45
2023-06-17T17:09:56.135Z,2.03
2023-06-17T17:12:22.567Z,2.70
2023-06-17T17:14:49.093Z,2.03
2023-06-17T17:17:15.617Z,2.15
2023-06-17T17:19:42.114Z,1.63
2023-06-17T17:22:08.617Z,1.65
2023-06-17T17:24:35.059Z,2.33
2023-06-17T17:27:02.172Z,2.03
2023-06-17T17:29:28.653Z,1.73
2023-06-17T17:31:55.099Z,2.80
2023-06-17T17:34:21.662Z,2.45
2023-06-17T17:36:48.139Z,2.60
2023-06-17T17:39:14.593Z,2.10
2023-06-17T17:41:41.008Z,2.22
2023-06-17T17:44:07.438Z,2.03
2023-06-17T17:46:34.004Z,2.22
2023-06-17T17:49:00.621Z,3.05
2023-06-17T17:51:27.192Z,2.87
2023-06-17T17:53:55.699Z,2.20
2023-06-17T17:56:22.131Z,2.63
2023-06-17T17:58:50.694Z,2.00
2023-06-17T18:01:17.404Z,2.45
2023-06-17T18:03:43.910Z,2.53
2023-06-17T18:06:10.690Z,1.98
2023-06-17T18:08:37.200Z,1.92
2023-06-17T18:11:03.619Z,1.92
2023-06-17T18:13:30.094Z,2.10
2023-06-17T18:15:56.549Z,1.60
2023-06-17T18:18:22.992Z,2.25
2023-06-17T18:20:49.523Z,1.42
2023-06-17T18:23:16.012Z,1.17
2023-06-17T18:25:42.473Z,1.77
2023-06-17T18:28:08.955Z,3.87
2023-06-17T18:30:35.417Z,2.00
2023-06-17T18:33:01.931Z,1.27
2023-06-17T18:35:29.555Z,1.83
2023-06-17T18:37:56.230Z,1.70
2023-06-17T18:40:22.935Z,1.73
2023-06-17T18:42:49.667Z,1.83
2023-06-17T18:45:16.141Z,1.38
2023-06-17T18:47:42.614Z,2.55
2023-06-17T18:50:09.301Z,2.33
2023-06-17T18:52:35.953Z,1.40
2023-06-17T18:55:02.445Z,1.65
2023-06-17T18:57:29.008Z,1.38
2023-06-17T18:59:56.449Z,1.23
2023-06-17T19:02:23.200Z,1.08
2023-06-17T19:04:49.724Z,1.03
2023-06-17T19:07:17.476Z,1.23
2023-06-17T19:09:44.054Z,1.30
2023-06-17T19:12:11.304Z,1.05
2023-06-17T19:14:37.782Z,1.13
2023-06-17T19:17:04.475Z,2.87
2023-06-17T19:19:31.131Z,2.20
2023-06-17T19:21:57.531Z,2.13
2023-06-17T19:24:24.044Z,1.88
2023-06-17T19:26:50.557Z,1.95
2023-06-17T19:29:17.039Z,1.87
2023-06-17T19:31:43.490Z,2.10
2023-06-17T19:34:10.020Z,1.80
2023-06-17T19:36:36.547Z,1.45
2023-06-17T19:39:03.882Z,1.40
2023-06-17T19:41:30.700Z,1.20
2023-06-17T19:43:57.897Z,1.10
2023-06-17T19:46:24.563Z,1.27
2023-06-17T19:48:51.413Z,1.08
2023-06-17T19:51:17.873Z,1.25
2023-06-17T19:53:44.360Z,1.10
2023-06-17T19:56:11.566Z,0.90
2023-06-17T19:58:38.570Z,1.60
2023-06-17T20:01:05.124Z,1.02
2023-06-17T20:03:31.803Z,0.82
2023-06-17T20:05:58.384Z,1.10
2023-06-17T20:08:24.901Z,1.13
2023-06-17T20:10:51.369Z,1.45
2023-06-17T20:13:18.175Z,1.02
2023-06-17T20:15:44.632Z,1.15
2023-06-17T20:18:12.156Z,1.10
2023-06-17T20:20:38.687Z,0.68
2023-06-17T20:23:05.116Z,1.17
2023-06-17T20:25:32.074Z,1.05
2023-06-17T20:27:58.495Z,1.13
2023-06-17T20:30:25.061Z,0.93
2023-06-17T20:32:51.583Z,1.00
2023-06-17T20:35:17.986Z,1.33
2023-06-17T20:37:45.056Z,1.02
2023-06-17T20:40:11.604Z,1.48
2023-06-17T20:42:38.240Z,0.97
2023-06-17T20:45:06.552Z,1.08
2023-06-17T20:47:33.113Z,1.00
2023-06-17T20:49:59.679Z,1.38
2023-06-17T20:52:26.150Z,0.98
2023-06-17T20:54:52.640Z,1.03
2023-06-17T20:57:19.188Z,0.90
2023-06-17T20:59:45.779Z,0.82
2023-06-17T21:02:13.208Z,0.88
2023-06-17T21:04:39.669Z,1.15
2023-06-17T21:07:06.120Z,0.40
2023-06-17T21:09:32.922Z,0.43
2023-06-17T21:11:59.346Z,0.93
2023-06-17T21:14:25.775Z,1.05
2023-06-17T21:16:53.746Z,0.77
2023-06-17T21:19:20.286Z,1.20
2023-06-17T21:21:46.731Z,1.10
2023-06-17T21:24:13.208Z,0.88
2023-06-17T21:26:39.679Z,0.90
2023-06-17T21:29:06.106Z,1.00
2023-06-17T21:31:32.547Z,0.60
2023-06-17T21:33:58.954Z,1.10
2023-06-17T21:36:25.406Z,1.20
2023-06-17T21:38:52.899Z,1.13
2023-06-17T21:41:19.319Z,0.95
2023-06-17T21:43:46.316Z,1.00
2023-06-17T21:46:12.839Z,0.77
2023-06-17T21:48:41.283Z,0.80
2023-06-17T21:51:09.404Z,1.35
2023-06-17T21:53:36.272Z,0.95
2023-06-17T21:56:02.771Z,0.83
2023-06-17T21:58:29.224Z,0.55
2023-06-17T22:00:55.944Z,1.20
2023-06-17T22:03:23.830Z,1.15
2023-06-17T22:05:50.532Z,0.98
2023-06-17T22:08:18.514Z,0.67
2023-06-17T22:10:45.654Z,0.68
2023-06-17T22:13:12.600Z,1.50
2023-06-17T22:15:39.079Z,0.80
2023-06-17T22:18:05.625Z,0.88
2023-06-17T22:20:32.638Z,0.87
2023-06-17T22:22:59.087Z,1.05
2023-06-17T22:25:25.909Z,1.13
2023-06-17T22:27:54.411Z,0.45
2023-06-17T22:30:21.123Z,1.27
2023-06-17T22:32:47.782Z,0.40
2023-06-17T22:35:14.386Z,0.75
2023-06-17T22:37:41.689Z,0.88
2023-06-17T22:40:09.901Z,0.95
2023-06-17T22:42:36.413Z,1.02
2023-06-17T22:45:03.550Z,1.17
2023-06-17T22:47:30.047Z,1.17
2023-06-17T22:49:56.500Z,1.25
2023-06-17T22:52:23.048Z,0.82
2023-06-17T22:54:50.321Z,1.38
2023-06-17T22:57:16.978Z,1.23
2023-06-17T22:59:43.429Z,1.45
2023-06-17T23:02:09.943Z,1.15
2023-06-17T23:04:36.429Z,0.98
2023-06-17T23:07:03.790Z,1.17
2023-06-17T23:09:30.207Z,1.10
2023-06-17T23:11:56.613Z,0.95
2023-06-17T23:14:24.911Z,1.17
2023-06-17T23:16:52.072Z,1.05
2023-06-17T23:19:19.056Z,1.08
2023-06-17T23:21:49.261Z,1.03
2023-06-17T23:24:17.664Z,1.08
2023-06-17T23:26:44.812Z,2.20
2023-06-17T23:29:11.639Z,0.88
2023-06-17T23:31:38.514Z,1.13
2023-06-17T23:34:05.418Z,1.27
2023-06-17T23:36:34.048Z,0.93
2023-06-17T23:39:03.893Z,0.90
2023-06-17T23:41:30.364Z,0.77
2023-06-17T23:43:57.751Z,1.20
2023-06-17T23:46:25.143Z,0.87
2023-06-17T23:48:51.668Z,0.85
2023-06-17T23:51:18.215Z,1.38
2023-06-17T23:53:44.606Z,0.90
2023-06-17T23:56:11.106Z,1.42
2023-06-17T23:58:37.624Z,0.80
